Time;durP1;ratioP1;P1;durP2;ratioP2;P2;SDS_P1;SDS_P2;PMS_P1;PMS_P2;Temp;Humidity;BMP_temperature;BMP_pressure;BME280_temperature;BME280_humidity;BME280_pressure;Samples;Min_cycle;Max_cycle;Signal;HPM_P1;HPM_P2
2022/11/04 00:01:01;;;;;;;6.10;2.42;;;13.90;98.00;;;;;;5076607;28;20043;-72
2022/11/04 00:06:49;;;;;;;4.65;2.60;;;14.00;98.00;;;;;;5076337;28;20328;-71
2022/11/04 00:09:30;;;;;;;3.10;2.15;;;13.90;98.00;;;;;;5076195;28;20024;-72
2022/11/04 00:14:48;;;;;;;3.58;2.72;;;13.90;98.00;;;;;;5061505;28;20044;-72
2022/11/04 00:17:24;;;;;;;3.95;1.80;;;13.80;98.00;;;;;;5076068;28;20028;-72
2022/11/04 00:34:12;;;;;;;1.35;1.20;;;13.80;98.00;;;;;;5076226;28;20036;-72
2022/11/04 00:36:47;;;;;;;2.90;2.33;;;13.80;98.00;;;;;;5075880;28;20021;-72
2022/11/04 00:39:22;;;;;;;1.85;1.60;;;13.70;98.00;;;;;;5075956;28;20408;-72
2022/11/04 00:41:57;;;;;;;1.73;1.63;;;13.70;98.00;;;;;;5075916;28;20024;-72
2022/11/04 00:44:23;;;;;;;1.48;1.38;;;13.70;98.00;;;;;;5075963;28;20039;-72
2022/11/04 00:46:58;;;;;;;1.75;1.40;;;13.70;98.00;;;;;;5075700;28;20451;-72
2022/11/04 00:49:33;;;;;;;2.92;1.75;;;13.70;98.00;;;;;;5076356;28;20029;-72
2022/11/04 00:55:20;;;;;;;3.08;1.80;;;13.70;98.00;;;;;;5079531;28;20112;-72
2022/11/04 00:57:57;;;;;;;6.97;3.05;;;13.70;98.00;;;;;;5079495;28;20408;-72
2022/11/04 01:00:31;;;;;;;0.65;0.55;;;13.60;98.00;;;;;;5061549;28;20024;-72
2022/11/04 01:03:06;;;;;;;1.48;1.38;;;13.50;98.00;;;;;;5079226;28;20039;-72
2022/11/04 01:05:32;;;;;;;3.03;2.08;;;13.60;98.00;;;;;;5079380;28;20013;-72
2022/11/04 01:08:07;;;;;;;1.88;1.48;;;13.70;98.00;;;;;;5079131;28;20086;-72
2022/11/04 01:10:43;;;;;;;2.00;1.25;;;13.70;98.00;;;;;;5079248;28;20372;-72
2022/11/04 01:13:18;;;;;;;1.38;1.20;;;13.70;98.00;;;;;;5079094;28;20020;-72
2022/11/04 01:15:43;;;;;;;3.08;2.00;;;13.70;98.00;;;;;;5079069;28;20282;-72
2022/11/04 01:18:21;;;;;;;1.55;1.02;;;13.70;98.00;;;;;;5079037;28;20103;-72
2022/11/04 01:21:25;;;;;;;3.58;1.92;;;13.70;98.00;;;;;;5078939;28;20031;-72
2022/11/04 01:27:24;;;;;;;1.17;1.05;;;13.80;98.00;;;;;;5016868;28;20062;-72
2022/11/04 01:30:50;;;;;;;1.73;1.60;;;13.70;98.00;;;;;;5063832;28;20049;-72
2022/11/04 01:36:50;;;;;;;0.50;0.50;;;13.90;98.00;;;;;;5058932;28;20112;-72
2022/11/04 01:39:28;;;;;;;0.30;0.22;;;13.60;98.00;;;;;;5058595;28;20053;-72
2022/11/04 01:42:03;;;;;;;0.60;0.40;;;13.40;98.00;;;;;;5058352;28;20025;-72
2022/11/04 01:44:41;;;;;;;0.43;0.32;;;13.30;98.00;;;;;;5058618;28;20025;-72
2022/11/04 01:48:07;;;;;;;0.40;0.30;;;13.30;98.00;;;;;;5058232;28;20032;-72
2022/11/04 01:50:42;;;;;;;0.20;0.20;;;13.30;98.00;;;;;;5016781;28;20040;-72
2022/11/04 01:53:38;;;;;;;0.20;0.10;;;13.30;98.00;;;;;;5016717;28;20169;-72
2022/11/04 01:56:16;;;;;;;0.10;0.10;;;13.30;98.00;;;;;;5016701;28;20017;-72
2022/11/04 01:58:59;;;;;;;0.57;0.40;;;13.40;98.00;;;;;;5016592;28;20311;-72
2022/11/04 02:01:34;;;;;;;0.10;0.10;;;13.50;98.00;;;;;;5056934;28;20024;-72
2022/11/04 02:07:31;;;;;;;0.65;0.57;;;13.50;98.00;;;;;;5057973;28;20036;-72
2022/11/04 02:10:06;;;;;;;0.15;0.15;;;13.50;98.00;;;;;;5058048;28;20025;-71
2022/11/04 02:16:00;;;;;;;0.50;0.40;;;13.50;98.00;;;;;;5057967;28;20051;-72
2022/11/04 02:19:08;;;;;;;0.30;0.20;;;13.30;98.00;;;;;;5057905;28;20016;-72
2022/11/04 02:22:06;;;;;;;0.15;0.15;;;13.30;98.00;;;;;;5040047;28;20029;-72
2022/11/04 02:24:50;;;;;;;0.70;0.68;;;13.20;98.00;;;;;;5057756;28;20017;-72
2022/11/04 02:27:53;;;;;;;0.57;0.35;;;13.30;98.00;;;;;;5057538;28;20025;-72
2022/11/04 02:31:13;;;;;;;0.22;0.13;;;13.30;98.00;;;;;;5057005;28;20321;-72
2022/11/04 02:34:12;;;;;;;0.50;0.47;;;13.30;98.00;;;;;;5057378;28;20029;-72
2022/11/04 02:37:16;;;;;;;0.75;0.40;;;13.40;98.00;;;;;;5057449;28;20088;-72
2022/11/04 02:40:44;;;;;;;0.10;0.10;;;13.40;98.00;;;;;;5057445;28;20021;-72
2022/11/04 02:44:06;;;;;;;0.10;0.10;;;13.40;98.00;;;;;;5057337;28;20301;-72
2022/11/04 02:46:47;;;;;;;0.10;0.10;;;13.40;98.00;;;;;;5055851;28;20021;-72
2022/11/04 02:49:46;;;;;;;0.98;0.35;;;13.40;98.00;;;;;;5039453;28;20029;-72
2022/11/04 02:55:39;;;;;;;0.10;0.10;;;13.50;98.00;;;;;;5057415;28;20067;-72
2022/11/04 02:58:47;;;;;;;0.45;0.20;;;13.50;98.00;;;;;;5057026;28;20028;-72
2022/11/04 03:01:25;;;;;;;0.40;0.40;;;13.30;98.00;;;;;;5015389;28;20084;-72
2022/11/04 03:07:29;;;;;;;1.42;0.88;;;13.10;98.00;;;;;;5015409;28;20060;-72
2022/11/04 03:10:52;;;;;;;0.45;0.38;;;13.10;98.00;;;;;;5015466;28;20014;-72
2022/11/04 03:13:49;;;;;;;0.65;0.40;;;13.10;98.00;;;;;;4984715;28;20038;-72
2022/11/04 03:16:50;;;;;;;0.00;0.00;;;13.00;98.00;;;;;;4995458;28;20018;-72
2022/11/04 03:20:14;;;;;;;0.43;0.40;;;13.00;98.00;;;;;;4998747;28;20030;-72
2022/11/04 03:22:49;;;;;;;0.55;0.32;;;12.90;98.00;;;;;;4937428;29;20412;-72
2022/11/04 03:25:15;;;;;;;0.10;0.10;;;12.90;98.00;;;;;;4937640;29;20039;-72
2022/11/04 03:28:21;;;;;;;0.10;0.10;;;12.90;98.00;;;;;;4937507;29;20031;-72
2022/11/04 03:31:00;;;;;;;0.30;0.30;;;12.90;98.00;;;;;;4937313;29;20067;-72
2022/11/04 03:36:57;;;;;;;0.38;0.38;;;12.90;98.00;;;;;;4937838;29;20099;-72
2022/11/04 03:39:32;;;;;;;0.73;0.17;;;12.90;98.00;;;;;;4937606;29;20499;-72
2022/11/04 03:45:20;;;;;;;0.10;0.10;;;12.90;98.00;;;;;;4937694;29;20026;-72
2022/11/04 03:47:56;;;;;;;0.95;0.38;;;12.90;98.00;;;;;;4937369;29;20053;-72
2022/11/04 03:50:53;;;;;;;0.63;0.43;;;12.90;98.00;;;;;;4951814;29;20031;-72
2022/11/04 03:53:31;;;;;;;0.00;0.00;;;13.00;98.00;;;;;;4956401;28;20031;-72
2022/11/04 03:56:34;;;;;;;0.00;0.00;;;13.10;98.00;;;;;;4982492;28;20033;-72
2022/11/04 03:59:27;;;;;;;0.10;0.05;;;13.00;98.00;;;;;;5056266;28;20067;-72
2022/11/04 04:02:29;;;;;;;0.00;0.00;;;13.10;98.00;;;;;;5056188;28;20017;-72
2022/11/04 04:05:11;;;;;;;0.00;0.00;;;13.10;98.00;;;;;;5038652;28;20021;-72
2022/11/04 04:11:36;;;;;;;0.30;0.30;;;13.20;98.00;;;;;;5014785;28;20064;-72
2022/11/04 04:17:38;;;;;;;0.00;0.00;;;13.20;98.00;;;;;;5014770;28;20161;-72
2022/11/04 04:20:14;;;;;;;0.05;0.00;;;13.20;98.00;;;;;;5014452;28;20502;-72
2022/11/04 04:28:52;;;;;;;0.10;0.10;;;13.20;98.00;;;;;;5018297;28;20033;-72
2022/11/04 04:31:51;;;;;;;0.00;0.00;;;13.20;98.00;;;;;;5018206;28;20057;-72
2022/11/04 04:34:22;;;;;;;0.00;0.00;;;13.20;98.00;;;;;;5018138;28;20034;-72
2022/11/04 04:37:42;;;;;;;0.00;0.00;;;13.30;98.00;;;;;;5018277;28;20054;-72
2022/11/04 04:46:00;;;;;;;0.00;0.00;;;13.20;98.00;;;;;;4930778;28;20042;-72
2022/11/04 04:48:35;;;;;;;0.00;0.00;;;13.30;98.00;;;;;;4979038;28;20309;-72
2022/11/04 04:51:10;;;;;;;0.73;0.60;;;13.40;98.00;;;;;;5059241;28;20035;-72
2022/11/04 04:56:58;;;;;;;0.20;0.20;;;13.40;98.00;;;;;;5059677;28;20060;-71
2022/11/04 04:59:39;;;;;;;1.85;1.00;;;13.40;98.00;;;;;;5059399;28;20390;-72
2022/11/04 05:05:26;;;;;;;1.02;0.30;;;13.50;98.00;;;;;;5059539;28;20325;-72
2022/11/04 05:08:13;;;;;;;0.55;0.52;;;13.60;98.00;;;;;;5059159;28;20025;-72
2022/11/04 05:10:47;;;;;;;0.75;0.45;;;13.60;98.00;;;;;;5059258;28;20025;-72
2022/11/04 05:16:50;;;;;;;1.00;0.28;;;13.60;98.00;;;;;;5059314;28;20428;-71
2022/11/04 05:19:25;;;;;;;0.10;0.10;;;13.60;98.00;;;;;;5059160;28;20048;-72
2022/11/04 05:22:00;;;;;;;0.65;0.32;;;13.70;98.00;;;;;;5058983;28;20301;-72
2022/11/04 05:24:26;;;;;;;0.45;0.20;;;13.70;98.00;;;;;;5059082;28;20350;-72
2022/11/04 05:27:10;;;;;;;2.90;1.35;;;13.70;98.00;;;;;;5058885;28;20059;-71
2022/11/04 05:29:45;;;;;;;0.03;0.03;;;13.60;98.00;;;;;;5040898;28;20053;-72
2022/11/04 05:35:33;;;;;;;0.40;0.25;;;13.60;98.00;;;;;;5059170;28;20301;-72
2022/11/04 05:38:08;;;;;;;0.17;0.17;;;13.60;98.00;;;;;;5058704;28;20401;-72
2022/11/04 05:40:43;;;;;;;0.27;0.20;;;13.60;98.00;;;;;;5058645;28;20024;-72
2022/11/04 05:46:31;;;;;;;0.15;0.10;;;13.70;98.00;;;;;;5058842;28;20064;-72
2022/11/04 05:49:06;;;;;;;0.52;0.52;;;13.70;98.00;;;;;;5058397;28;20024;-72
2022/11/04 05:51:43;;;;;;;0.20;0.10;;;13.70;98.00;;;;;;5058465;28;20310;-72
2022/11/04 05:57:43;;;;;;;0.10;0.10;;;13.70;98.00;;;;;;5058473;28;20032;-72
2022/11/04 06:00:18;;;;;;;0.00;0.00;;;13.80;98.00;;;;;;5058419;28;20396;-72
2022/11/04 06:02:56;;;;;;;0.20;0.20;;;13.90;98.00;;;;;;5058229;28;20028;-72
2022/11/04 06:05:22;;;;;;;0.10;0.10;;;13.90;98.00;;;;;;5040887;28;20155;-71
2022/11/04 06:08:03;;;;;;;3.50;1.90;;;13.80;98.00;;;;;;5040345;28;20021;-72
2022/11/04 06:10:38;;;;;;;0.73;0.73;;;13.90;98.00;;;;;;5058063;28;20028;-72
2022/11/04 06:16:26;;;;;;;1.35;1.25;;;13.90;98.00;;;;;;5058357;28;20054;-72
2022/11/04 06:19:01;;;;;;;0.47;0.10;;;14.00;98.00;;;;;;5040322;28;20025;-72
2022/11/04 06:21:36;;;;;;;0.37;0.27;;;14.00;98.00;;;;;;5040210;28;20037;-72
2022/11/04 06:27:33;;;;;;;0.80;0.80;;;14.00;98.00;;;;;;5057759;28;20035;-72
2022/11/04 06:30:58;;;;;;;0.20;0.20;;;14.00;98.00;;;;;;5057173;28;20055;-72
2022/11/04 06:36:58;;;;;;;0.70;0.63;;;13.90;98.00;;;;;;5057776;28;20163;-72
2022/11/04 06:39:33;;;;;;;0.88;0.73;;;14.00;98.00;;;;;;5057432;28;20111;-72
2022/11/04 06:42:09;;;;;;;0.70;0.60;;;14.00;98.00;;;;;;5057337;28;20037;-72
2022/11/04 06:44:35;;;;;;;0.73;0.70;;;14.00;98.00;;;;;;5057380;28;20036;-72
2022/11/04 06:47:13;;;;;;;0.50;0.30;;;14.00;98.00;;;;;;5056740;28;20103;-72
2022/11/04 06:49:48;;;;;;;1.02;0.82;;;14.10;98.00;;;;;;5057179;28;20031;-72
2022/11/04 06:52:23;;;;;;;0.30;0.25;;;14.10;98.00;;;;;;5057183;28;20021;-72
2022/11/04 06:55:25;;;;;;;1.40;0.20;;;14.10;98.00;;;;;;5057240;28;20024;-72
2022/11/04 06:58:00;;;;;;;0.95;0.82;;;14.20;98.00;;;;;;5056912;28;20028;-72
2022/11/04 07:00:36;;;;;;;0.40;0.20;;;14.20;98.00;;;;;;5057094;28;20033;-72
2022/11/04 07:06:24;;;;;;;0.82;0.75;;;14.20;98.00;;;;;;5057249;28;20416;-72
2022/11/04 07:09:09;;;;;;;0.35;0.32;;;14.30;98.00;;;;;;5056895;28;20028;-72
2022/11/04 07:11:47;;;;;;;0.10;0.10;;;14.20;98.00;;;;;;5056970;28;20087;-71
2022/11/04 07:17:47;;;;;;;0.10;0.10;;;14.30;98.00;;;;;;5056887;28;20420;-72
2022/11/04 07:20:22;;;;;;;0.63;0.52;;;14.30;98.00;;;;;;5056907;28;20092;-72
2022/11/04 07:26:12;;;;;;;2.40;1.83;;;14.30;98.00;;;;;;5057066;28;20459;-72
2022/11/04 07:28:47;;;;;;;0.47;0.28;;;14.30;98.00;;;;;;5056627;28;20097;-72
2022/11/04 07:31:22;;;;;;;1.75;1.42;;;14.30;98.00;;;;;;5055965;28;20053;-72
2022/11/04 07:33:50;;;;;;;1.20;0.93;;;14.40;98.00;;;;;;5056442;28;20036;-72
2022/11/04 07:36:24;;;;;;;0.20;0.10;;;14.40;98.00;;;;;;5056493;28;20029;-72
2022/11/04 07:39:00;;;;;;;0.35;0.35;;;14.40;98.00;;;;;;5056620;28;20346;-72
2022/11/04 07:41:35;;;;;;;0.50;0.30;;;14.40;98.00;;;;;;5056426;28;20052;-72
2022/11/04 07:48:32;;;;;;;0.60;0.55;;;14.40;98.00;;;;;;5056354;28;20432;-72
2022/11/04 07:51:57;;;;;;;9.43;3.10;;;14.40;98.00;;;;;;5056242;28;20021;-72
2022/11/04 07:54:22;;;;;;;1.33;1.00;;;14.50;98.00;;;;;;5056376;28;20017;-72
2022/11/04 07:56:57;;;;;;;0.60;0.60;;;14.50;98.00;;;;;;5056154;28;20027;-72
2022/11/04 07:59:34;;;;;;;0.70;0.55;;;14.40;98.00;;;;;;5058399;28;20025;-71
2022/11/04 10:52:07;;;;;;;0.10;0.00;;;17.80;95.30;;;;;;5010887;23;20046;-74
2022/11/04 11:00:58;;;;;;;0.30;0.10;;;18.50;95.60;;;;;;4791509;26;20059;-83
2022/11/04 11:03:34;;;;;;;0.22;0.20;;;18.80;92.80;;;;;;4960164;28;20031;-73
2022/11/04 11:06:24;;;;;;;0.20;0.20;;;18.50;92.70;;;;;;4972064;28;20039;-75
2022/11/04 11:10:10;;;;;;;0.30;0.20;;;18.00;94.80;;;;;;4949627;29;20047;-76
2022/11/04 11:16:39;;;;;;;1.17;0.25;;;16.70;97.70;;;;;;4916795;29;20032;-72
2022/11/04 11:19:21;;;;;;;0.00;0.00;;;15.90;98.00;;;;;;4956658;28;20054;-72
2022/11/04 11:21:48;;;;;;;0.32;0.20;;;15.40;98.00;;;;;;4956702;28;20050;-72
2022/11/04 11:24:26;;;;;;;0.20;0.10;;;15.00;98.00;;;;;;4956651;28;20341;-72
2022/11/04 11:27:21;;;;;;;0.70;0.30;;;14.90;98.00;;;;;;4957189;28;20331;-72
2022/11/04 11:29:56;;;;;;;0.25;0.17;;;14.90;98.00;;;;;;4957496;29;20106;-72
2022/11/04 11:32:33;;;;;;;0.20;0.20;;;15.70;98.00;;;;;;4958167;28;20058;-72
2022/11/04 11:35:16;;;;;;;0.22;0.13;;;16.10;98.00;;;;;;4958272;28;20281;-72
2022/11/04 11:37:52;;;;;;;0.15;0.10;;;16.10;98.00;;;;;;4958530;28;20031;-72
2022/11/04 11:40:26;;;;;;;0.08;0.08;;;15.80;98.00;;;;;;4958466;29;20059;-72
2022/11/04 11:43:03;;;;;;;0.22;0.10;;;15.60;98.00;;;;;;4941344;29;20046;-72
2022/11/04 11:45:38;;;;;;;0.22;0.13;;;15.50;98.00;;;;;;4958444;28;20315;-72
2022/11/04 11:48:52;;;;;;;0.22;0.22;;;15.10;98.00;;;;;;4958328;28;20086;-72
2022/11/04 11:51:25;;;;;;;0.15;0.10;;;14.80;98.00;;;;;;4936192;29;20035;-72
2022/11/04 11:54:37;;;;;;;0.17;0.13;;;14.60;98.00;;;;;;4958388;28;20027;-72
2022/11/04 11:57:32;;;;;;;0.52;0.40;;;14.50;98.00;;;;;;4899468;29;20039;-72
2022/11/04 12:04:03;;;;;;;0.28;0.13;;;14.40;98.00;;;;;;4829850;29;20194;-72
2022/11/04 12:07:03;;;;;;;0.20;0.17;;;14.50;98.00;;;;;;4843653;29;20466;-72
2022/11/04 12:09:46;;;;;;;0.08;0.08;;;14.40;98.00;;;;;;4843619;29;20203;-72
2022/11/04 12:12:59;;;;;;;0.40;0.38;;;14.30;98.00;;;;;;4843628;29;20082;-72
2022/11/04 12:15:39;;;;;;;0.25;0.20;;;14.20;98.00;;;;;;4843645;29;20068;-72
2022/11/04 12:18:45;;;;;;;0.20;0.20;;;14.10;98.00;;;;;;4843636;29;20045;-72
2022/11/04 12:21:20;;;;;;;0.10;0.08;;;14.00;98.00;;;;;;4843569;29;20098;-72
2022/11/04 12:24:34;;;;;;;0.00;0.00;;;13.80;98.00;;;;;;4843570;29;20037;-72
2022/11/04 12:27:17;;;;;;;0.20;0.20;;;13.80;98.00;;;;;;4843437;29;20038;-72
2022/11/04 12:30:16;;;;;;;0.30;0.30;;;13.80;98.00;;;;;;4845049;29;20034;-72
2022/11/04 12:33:00;;;;;;;0.00;0.00;;;13.80;98.00;;;;;;4899264;29;20141;-72
2022/11/04 12:35:54;;;;;;;0.15;0.08;;;13.70;98.00;;;;;;4905176;29;20084;-72
2022/11/04 12:39:01;;;;;;;0.05;0.03;;;13.80;98.00;;;;;;4957986;28;20110;-72
2022/11/04 12:41:58;;;;;;;0.10;0.10;;;13.80;98.00;;;;;;4957950;28;20027;-72
2022/11/04 12:45:17;;;;;;;0.10;0.10;;;13.90;98.00;;;;;;4957880;28;20400;-72
2022/11/04 12:47:58;;;;;;;0.10;0.10;;;14.00;98.00;;;;;;4957145;28;20119;-72
2022/11/04 12:50:53;;;;;;;0.08;0.08;;;14.10;98.00;;;;;;4961284;28;20304;-72
2022/11/04 12:54:05;;;;;;;0.30;0.30;;;14.10;98.00;;;;;;4944436;29;20359;-72
2022/11/04 12:57:20;;;;;;;0.10;0.10;;;14.00;98.00;;;;;;4961347;28;20027;-72
2022/11/04 13:00:27;;;;;;;0.00;0.00;;;13.80;98.00;;;;;;4961522;28;20307;-72
2022/11/04 13:03:52;;;;;;;0.08;0.08;;;13.70;98.00;;;;;;4949333;28;20047;-72
2022/11/04 13:07:17;;;;;;;0.00;0.00;;;13.60;98.00;;;;;;4961152;28;20122;-72
2022/11/04 13:10:43;;;;;;;0.00;0.00;;;13.50;98.00;;;;;;4943978;29;20331;-72
2022/11/04 13:14:08;;;;;;;0.88;0.75;;;13.30;98.00;;;;;;4961153;28;20036;-72
2022/11/04 13:17:34;;;;;;;0.20;0.08;;;13.30;98.00;;;;;;4943861;29;20391;-72
2022/11/04 13:24:36;;;;;;;0.15;0.15;;;13.20;98.00;;;;;;4961337;28;20470;-72
2022/11/04 13:28:01;;;;;;;0.52;0.10;;;13.40;98.00;;;;;;4960652;28;20059;-72
2022/11/04 13:30:38;;;;;;;0.47;0.30;;;13.50;98.00;;;;;;4960708;28;20028;-72
2022/11/04 13:33:53;;;;;;;0.20;0.10;;;13.60;98.00;;;;;;4960712;28;20023;-72
2022/11/04 13:37:06;;;;;;;0.17;0.17;;;13.90;98.00;;;;;;4960672;28;20027;-72
2022/11/04 13:39:49;;;;;;;0.30;0.30;;;14.20;98.00;;;;;;4953501;29;20040;-72
2022/11/04 13:42:38;;;;;;;0.10;0.10;;;14.40;98.00;;;;;;4960555;28;20388;-72
2022/11/04 13:45:19;;;;;;;0.13;0.13;;;14.40;98.00;;;;;;4960456;28;20082;-72
2022/11/04 13:48:10;;;;;;;0.10;0.05;;;14.40;98.00;;;;;;4960836;29;20039;-72
2022/11/04 13:50:38;;;;;;;0.95;0.20;;;14.50;98.00;;;;;;4952955;28;20059;-72
2022/11/04 13:53:15;;;;;;;0.00;0.00;;;14.70;98.00;;;;;;4960385;29;20027;-72
2022/11/04 13:55:56;;;;;;;0.00;0.00;;;14.80;98.00;;;;;;4960332;28;20032;-72
2022/11/04 13:58:34;;;;;;;0.10;0.03;;;14.70;98.00;;;;;;4959906;28;20126;-72
2022/11/04 14:04:37;;;;;;;0.10;0.10;;;14.60;98.00;;;;;;4959336;28;20058;-72
2022/11/04 14:07:16;;;;;;;0.00;0.00;;;14.50;98.00;;;;;;4960005;29;20043;-72
2022/11/04 14:13:43;;;;;;;0.00;0.00;;;14.60;98.00;;;;;;4960296;28;20026;-72
2022/11/04 14:16:55;;;;;;;0.00;0.00;;;14.70;98.00;;;;;;4942908;28;20026;-72
2022/11/04 14:20:01;;;;;;;0.57;0.47;;;14.60;98.00;;;;;;4959471;28;20031;-72
2022/11/04 14:22:58;;;;;;;0.00;0.00;;;14.60;98.00;;;;;;4959815;28;20107;-72
2022/11/04 14:25:39;;;;;;;0.13;0.10;;;14.50;98.00;;;;;;4959693;29;20423;-72
2022/11/04 14:28:34;;;;;;;0.00;0.00;;;14.50;98.00;;;;;;4959646;28;20038;-72
2022/11/04 14:31:07;;;;;;;0.10;0.10;;;14.50;98.00;;;;;;4959604;29;20057;-72
2022/11/04 14:33:53;;;;;;;0.95;0.40;;;14.50;98.00;;;;;;4959605;29;20352;-72
2022/11/04 14:36:30;;;;;;;0.00;0.00;;;14.40;98.00;;;;;;4959555;29;20031;-72
2022/11/04 14:39:33;;;;;;;0.10;0.10;;;14.50;96.00;;;;;;4959455;28;20031;-72
2022/11/04 14:42:05;;;;;;;0.08;0.08;;;14.40;98.00;;;;;;4942219;29;20034;-72
2022/11/04 14:44:53;;;;;;;0.20;0.10;;;14.50;98.00;;;;;;4959550;28;20106;-72
2022/11/04 14:47:31;;;;;;;0.08;0.08;;;14.20;98.00;;;;;;4959567;29;20326;-72
2022/11/04 14:53:32;;;;;;;0.32;0.30;;;13.80;98.00;;;;;;4959414;29;20030;-72
2022/11/04 14:56:40;;;;;;;0.43;0.15;;;13.70;98.00;;;;;;4942205;29;20115;-72
2022/11/04 14:59:44;;;;;;;0.90;0.10;;;13.80;98.00;;;;;;4881387;29;20433;-72
2022/11/04 15:02:34;;;;;;;0.00;0.00;;;13.70;98.00;;;;;;4873242;29;20071;-72
2022/11/04 15:05:59;;;;;;;0.15;0.15;;;13.70;98.00;;;;;;4880999;29;20061;-72
2022/11/04 15:09:30;;;;;;;0.30;0.13;;;13.60;98.00;;;;;;4880916;29;20442;-72
2022/11/04 15:15:37;;;;;;;0.25;0.10;;;13.30;98.00;;;;;;4881564;29;20052;-72
2022/11/04 15:18:15;;;;;;;0.32;0.30;;;13.20;98.00;;;;;;4874098;29;20162;-72
2022/11/04 15:24:17;;;;;;;0.00;0.00;;;12.90;98.00;;;;;;4958947;28;20029;-72
2022/11/04 15:27:05;;;;;;;0.22;0.22;;;12.90;98.00;;;;;;4958593;28;20027;-72
2022/11/04 15:33:15;;;;;;;0.13;0.08;;;12.50;98.00;;;;;;4959005;28;20039;-72
2022/11/04 15:35:51;;;;;;;0.00;0.00;;;12.50;98.00;;;;;;4958568;28;20023;-72
2022/11/04 15:38:27;;;;;;;0.10;0.10;;;12.50;98.00;;;;;;4958488;28;20031;-72
2022/11/04 15:42:35;;;;;;;0.22;0.13;;;12.40;98.00;;;;;;4958421;28;20019;-72
2022/11/04 15:43:53;;;;;;;0.10;0.10;;;12.40;98.00;;;;;;4953359;28;20039;-72
2022/11/04 15:46:29;;;;;;;0.10;0.10;;;12.30;98.00;;;;;;4958413;28;20106;-72
2022/11/04 15:49:36;;;;;;;0.20;0.20;;;12.20;98.00;;;;;;4958295;28;20034;-72
2022/11/04 15:52:10;;;;;;;2.05;1.27;;;12.10;98.00;;;;;;4958317;28;20063;-72
2022/11/04 15:54:47;;;;;;;0.10;0.10;;;12.00;98.00;;;;;;4958384;28;20305;-72
2022/11/04 15:57:39;;;;;;;0.03;0.00;;;12.00;98.00;;;;;;4958260;28;20035;-72
2022/11/04 16:00:14;;;;;;;0.08;0.00;;;11.90;98.00;;;;;;4958585;28;20033;-72
2022/11/04 16:02:57;;;;;;;0.00;0.00;;;11.70;98.00;;;;;;4958335;29;20095;-72
2022/11/04 16:05:38;;;;;;;0.10;0.10;;;11.70;98.00;;;;;;4958000;28;20047;-72
2022/11/04 16:08:29;;;;;;;0.20;0.20;;;11.60;98.00;;;;;;4958118;29;20115;-72
2022/11/04 16:14:33;;;;;;;0.00;0.00;;;11.70;98.00;;;;;;4958455;28;20031;-72
2022/11/04 16:17:09;;;;;;;0.00;0.00;;;11.70;95.50;;;;;;4958144;29;20027;-71
2022/11/04 16:23:02;;;;;;;0.00;0.00;;;12.30;89.50;;;;;;4962326;28;20065;-71
2022/11/04 16:25:37;;;;;;;0.00;0.00;;;12.40;86.80;;;;;;4961980;28;20089;-71
2022/11/04 16:28:21;;;;;;;0.00;0.00;;;12.40;88.40;;;;;;4944987;29;20439;-71
2022/11/04 16:30:58;;;;;;;0.00;0.00;;;12.50;86.10;;;;;;4961771;28;20031;-71
2022/11/04 16:33:33;;;;;;;0.00;0.00;;;12.60;85.40;;;;;;4961830;28;20350;-71
2022/11/04 16:36:12;;;;;;;0.00;0.00;;;12.60;87.50;;;;;;4961792;28;20031;-71
2022/11/04 16:39:03;;;;;;;0.00;0.00;;;12.50;91.30;;;;;;4961684;28;20027;-71
2022/11/04 16:41:34;;;;;;;0.00;0.00;;;12.40;93.80;;;;;;4961677;28;20058;-71
2022/11/04 16:44:19;;;;;;;0.00;0.00;;;12.30;96.10;;;;;;4961669;28;20053;-72
2022/11/04 16:46:55;;;;;;;0.10;0.10;;;12.20;97.80;;;;;;4961507;28;20031;-72
2022/11/04 16:49:30;;;;;;;0.08;0.08;;;12.20;98.00;;;;;;4961448;29;20497;-72
2022/11/04 16:52:01;;;;;;;0.00;0.00;;;12.00;98.00;;;;;;4961477;28;20031;-72
2022/11/04 16:54:36;;;;;;;0.00;0.00;;;11.90;98.00;;;;;;4961495;28;20027;-72
2022/11/04 16:57:13;;;;;;;0.00;0.00;;;11.80;98.00;;;;;;4961363;28;20114;-72
2022/11/04 17:03:11;;;;;;;0.00;0.00;;;11.80;98.00;;;;;;4961358;28;20330;-72
2022/11/04 17:05:50;;;;;;;0.15;0.15;;;11.70;98.00;;;;;;4961261;28;20043;-72
2022/11/04 17:08:25;;;;;;;0.00;0.00;;;11.80;98.00;;;;;;4961092;29;20074;-72
2022/11/04 17:10:53;;;;;;;0.20;0.20;;;11.80;98.00;;;;;;4961103;28;20323;-72
2022/11/04 17:13:28;;;;;;;0.00;0.00;;;11.80;98.00;;;;;;4961096;28;20019;-72
2022/11/04 17:16:04;;;;;;;0.00;0.00;;;11.80;98.00;;;;;;4961079;28;20078;-72
2022/11/04 17:18:39;;;;;;;0.00;0.00;;;11.80;98.00;;;;;;4960961;28;20070;-72
2022/11/04 17:21:07;;;;;;;0.00;0.00;;;11.80;98.00;;;;;;4960905;28;20027;-72
2022/11/04 17:23:46;;;;;;;0.17;0.17;;;11.80;98.00;;;;;;4960897;28;20031;-72
2022/11/04 17:26:21;;;;;;;0.10;0.10;;;11.90;98.00;;;;;;4960866;28;20067;-72
2022/11/04 17:28:56;;;;;;;0.45;0.30;;;12.00;97.80;;;;;;4960679;28;20038;-72
2022/11/04 17:34:56;;;;;;;0.03;0.03;;;12.10;96.20;;;;;;4961067;28;20030;-72
2022/11/04 17:37:31;;;;;;;0.32;0.13;;;12.10;95.90;;;;;;4960778;29;20036;-72
2022/11/04 17:40:07;;;;;;;0.00;0.00;;;12.00;96.40;;;;;;4960607;28;20114;-72
2022/11/04 17:45:43;;;;;;;0.00;0.00;;;11.80;98.00;;;;;;4960546;29;20034;-72
2022/11/04 17:48:18;;;;;;;0.10;0.00;;;11.60;96.00;;;;;;4943625;29;20343;-72
2022/11/04 17:50:43;;;;;;;0.00;0.00;;;11.50;95.50;;;;;;4959264;28;20083;-72
2022/11/04 17:53:27;;;;;;;0.00;0.00;;;11.40;92.40;;;;;;4960415;28;20023;-72
2022/11/04 17:56:02;;;;;;;0.10;0.10;;;11.40;91.90;;;;;;4960226;29;20016;-72
2022/11/04 17:58:37;;;;;;;0.00;0.00;;;11.30;95.90;;;;;;4960333;28;20312;-72
2022/11/04 18:01:06;;;;;;;0.00;0.00;;;11.30;97.20;;;;;;4960086;28;20114;-72
2022/11/04 18:07:15;;;;;;;1.10;0.20;;;11.30;97.20;;;;;;4960320;28;20078;-72
2022/11/04 18:09:50;;;;;;;0.80;0.80;;;11.50;97.60;;;;;;4942920;29;20035;-72
2022/11/04 18:15:11;;;;;;;0.10;0.10;;;11.50;97.00;;;;;;4960238;28;20101;-72
2022/11/04 18:17:45;;;;;;;0.00;0.00;;;11.50;96.40;;;;;;4959937;28;20027;-72
2022/11/04 18:23:42;;;;;;;0.00;0.00;;;11.20;98.00;;;;;;4960139;28;20022;-72
2022/11/04 18:27:07;;;;;;;0.20;0.10;;;11.10;98.00;;;;;;4959764;28;20035;-72
2022/11/04 18:30:32;;;;;;;0.00;0.00;;;11.00;98.00;;;;;;4959700;28;20039;-72
2022/11/04 18:33:57;;;;;;;0.00;0.00;;;10.90;98.00;;;;;;4959696;28;20031;-72
2022/11/04 18:37:22;;;;;;;0.00;0.00;;;10.90;95.30;;;;;;4959658;28;20367;-72
2022/11/04 18:40:13;;;;;;;0.00;0.00;;;11.20;93.20;;;;;;4959466;29;20027;-72
2022/11/04 18:42:57;;;;;;;0.00;0.00;;;11.40;97.50;;;;;;4942337;28;20035;-72
2022/11/04 18:45:32;;;;;;;0.00;0.00;;;11.40;96.80;;;;;;4959281;28;20078;-72
2022/11/04 18:48:07;;;;;;;0.00;0.00;;;11.30;97.30;;;;;;4959214;29;20027;-72
2022/11/04 18:50:33;;;;;;;0.00;0.00;;;11.10;93.70;;;;;;4942274;28;20090;-72
2022/11/04 18:53:17;;;;;;;0.00;0.00;;;11.20;93.30;;;;;;4959325;28;20027;-72
2022/11/04 18:55:52;;;;;;;0.10;0.10;;;11.30;92.30;;;;;;4959210;28;20031;-72
2022/11/04 18:58:31;;;;;;;0.00;0.00;;;11.50;95.40;;;;;;4959055;29;20032;-72
2022/11/04 19:04:28;;;;;;;0.00;0.00;;;11.80;83.80;;;;;;4958895;28;20089;-72
2022/11/04 19:07:03;;;;;;;0.00;0.00;;;12.10;84.60;;;;;;4958991;28;21937;-72
2022/11/04 19:13:19;;;;;;;0.10;0.10;;;12.10;88.50;;;;;;4959256;29;20130;-72
2022/11/04 19:15:54;;;;;;;0.00;0.00;;;12.00;91.30;;;;;;4958953;28;20035;-72
2022/11/04 19:18:28;;;;;;;0.03;0.03;;;11.80;93.90;;;;;;4958872;29;20451;-72
2022/11/04 19:20:54;;;;;;;0.00;0.00;;;11.70;94.60;;;;;;4958842;28;20441;-72
2022/11/04 19:23:30;;;;;;;0.00;0.00;;;11.70;94.00;;;;;;4958713;29;20110;-72
2022/11/04 19:26:12;;;;;;;0.00;0.00;;;11.70;92.00;;;;;;4958791;28;20055;-72
2022/11/04 19:28:48;;;;;;;0.00;0.00;;;11.90;88.60;;;;;;4958729;28;20110;-71
2022/11/04 19:31:18;;;;;;;;;;;12.10;84.10;;;;;;4959034;28;20110;-71
2022/11/04 19:33:56;;;;;;;0.00;0.00;;;12.40;84.20;;;;;;4959068;28;19912;-71
2022/11/04 19:36:32;;;;;;;0.00;0.00;;;12.50;85.10;;;;;;4958597;29;20055;-71
2022/11/04 19:39:08;;;;;;;0.00;0.00;;;12.60;82.60;;;;;;4941515;29;20428;-71
2022/11/04 19:44:31;;;;;;;0.00;0.00;;;12.90;81.10;;;;;;4958531;28;19914;-71
2022/11/04 19:47:07;;;;;;;0.10;0.10;;;13.00;80.50;;;;;;4958353;28;20032;-71
2022/11/04 19:52:55;;;;;;;0.00;0.00;;;13.00;79.60;;;;;;4958787;29;20454;-71
2022/11/04 19:55:31;;;;;;;0.00;0.00;;;13.00;79.50;;;;;;4958093;29;20035;-71
2022/11/04 20:00:43;;;;;;;0.00;0.00;;;13.00;80.50;;;;;;4861107;23;20116;-70
2022/11/04 20:03:27;;;;;;;0.00;0.00;;;13.00;79.90;;;;;;4976771;28;20082;-70
2022/11/04 20:06:02;;;;;;;0.00;0.00;;;13.00;79.60;;;;;;4977036;28;20029;-71
2022/11/04 20:08:38;;;;;;;0.00;0.00;;;12.90;80.70;;;;;;4976794;28;20109;-70
2022/11/04 20:11:06;;;;;;;0.00;0.00;;;12.90;80.80;;;;;;4960017;28;20106;-71
2022/11/04 20:13:51;;;;;;;0.00;0.00;;;12.80;81.40;;;;;;4960414;28;20038;-71
2022/11/04 20:16:29;;;;;;;0.00;0.00;;;12.90;84.50;;;;;;4977370;28;20426;-71
2022/11/04 20:22:16;;;;;;;0.00;0.00;;;12.80;84.60;;;;;;4977525;28;20474;-70